Time;durP1;ratioP1;P1;durP2;ratioP2;P2;SDS_P1;SDS_P2;PMS_P1;PMS_P2;Temp;Humidity;BMP_temperature;BMP_pressure;BME280_temperature;BME280_humidity;BME280_pressure;Samples;Min_cycle;Max_cycle;Signal;HPM_P1;HPM_P2
2023/09/23 00:00:47;;;;;;;6.15;5.38;;;;;;;;;;5049591;28;20842;-58
2023/09/23 00:03:13;;;;;;;5.68;4.40;;;;;;;;;;5049827;28;20428;-58
2023/09/23 00:05:39;;;;;;;4.47;3.50;;;;;;;;;;5049805;28;20872;-58
2023/09/23 00:08:05;;;;;;;5.30;3.30;;;;;;;;;;5050043;28;20440;-58
2023/09/23 00:10:31;;;;;;;4.63;3.15;;;;;;;;;;5050218;28;20409;-58
2023/09/23 00:12:56;;;;;;;4.17;2.90;;;;;;;;;;5049435;28;20397;-58
2023/09/23 00:15:21;;;;;;;4.57;2.83;;;;;;;;;;5049646;28;20472;-58
2023/09/23 00:17:47;;;;;;;4.07;2.37;;;;;;;;;;5050145;28;20488;-58
2023/09/23 00:20:18;;;;;;;3.33;2.20;;;;;;;;;;5048958;28;20397;-58
2023/09/23 00:22:54;;;;;;;2.80;2.10;;;;;;;;;;5049997;28;20446;-58
2023/09/23 00:25:20;;;;;;;3.03;2.03;;;;;;;;;;5049290;28;20409;-58
2023/09/23 00:27:46;;;;;;;2.93;1.70;;;;;;;;;;5032981;28;20461;-58
2023/09/23 00:30:12;;;;;;;3.93;1.80;;;;;;;;;;5020621;28;20457;-58
2023/09/23 00:32:39;;;;;;;3.63;1.70;;;;;;;;;;5020995;28;20961;-58
2023/09/23 00:35:05;;;;;;;3.22;1.63;;;;;;;;;;5038183;28;20408;-58
2023/09/23 00:37:30;;;;;;;3.23;1.53;;;;;;;;;;5020668;28;20395;-58
2023/09/23 00:39:56;;;;;;;3.25;1.48;;;;;;;;;;5021077;28;20399;-58
2023/09/23 00:42:21;;;;;;;3.17;1.50;;;;;;;;;;5023010;28;20405;-57
2023/09/23 00:44:46;;;;;;;2.77;1.50;;;;;;;;;;5015795;28;20418;-58
2023/09/23 00:47:15;;;;;;;2.57;1.67;;;;;;;;;;5016906;28;20501;-58
2023/09/23 00:49:44;;;;;;;2.78;1.40;;;;;;;;;;5021755;28;20394;-58
2023/09/23 00:52:10;;;;;;;2.35;1.23;;;;;;;;;;5024636;28;20405;-58
2023/09/23 00:54:36;;;;;;;2.50;1.20;;;;;;;;;;5023660;28;20395;-58
2023/09/23 00:57:03;;;;;;;1.87;1.20;;;;;;;;;;5023540;28;20446;-58
2023/09/23 00:59:29;;;;;;;2.35;1.20;;;;;;;;;;5029060;28;20830;-58
2023/09/23 01:01:56;;;;;;;3.97;1.60;;;;;;;;;;5024129;28;20525;-58
2023/09/23 01:04:21;;;;;;;1.75;1.10;;;;;;;;;;5023356;28;20434;-57
2023/09/23 01:06:48;;;;;;;3.07;1.23;;;;;;;;;;5020947;28;20640;-58
2023/09/23 01:09:21;;;;;;;2.30;1.30;;;;;;;;;;5015436;28;20419;-57
2023/09/23 01:11:47;;;;;;;1.83;1.00;;;;;;;;;;5018103;28;20978;-58
2023/09/23 01:14:12;;;;;;;2.47;1.00;;;;;;;;;;5025070;28;20402;-57
2023/09/23 01:16:38;;;;;;;1.50;1.00;;;;;;;;;;5025191;28;20413;-58
2023/09/23 01:19:03;;;;;;;3.10;1.17;;;;;;;;;;5024484;28;20416;-58
2023/09/23 01:21:28;;;;;;;1.63;1.17;;;;;;;;;;5023983;28;20482;-58
2023/09/23 01:23:54;;;;;;;2.27;1.10;;;;;;;;;;5025232;28;20415;-58
2023/09/23 01:26:19;;;;;;;2.17;1.20;;;;;;;;;;5027436;28;20441;-58
2023/09/23 01:28:47;;;;;;;2.47;1.20;;;;;;;;;;5018161;28;20438;-57
2023/09/23 01:31:12;;;;;;;1.90;1.10;;;;;;;;;;5017389;28;20744;-57
2023/09/23 01:33:38;;;;;;;2.60;1.40;;;;;;;;;;5015587;28;20413;-57
2023/09/23 01:36:14;;;;;;;2.63;1.30;;;;;;;;;;5023537;28;20442;-57
2023/09/23 01:38:41;;;;;;;4.03;2.30;;;;;;;;;;5024159;28;20497;-57
2023/09/23 01:41:06;;;;;;;4.28;2.85;;;;;;;;;;5027747;28;20479;-58
2023/09/23 01:43:31;;;;;;;3.20;2.10;;;;;;;;;;5023837;28;20784;-58
2023/09/23 01:46:02;;;;;;;4.17;2.60;;;;;;;;;;5026498;28;20407;-57
2023/09/23 01:48:29;;;;;;;3.90;2.60;;;;;;;;;;5030876;28;20838;-58
2023/09/23 01:50:56;;;;;;;4.90;3.35;;;;;;;;;;5030340;28;20942;-57
2023/09/23 01:53:23;;;;;;;7.10;4.15;;;;;;;;;;5018841;28;20806;-58
2023/09/23 01:55:48;;;;;;;4.90;3.55;;;;;;;;;;5021108;28;20450;-57
2023/09/23 01:58:14;;;;;;;6.70;4.57;;;;;;;;;;5024275;28;20850;-57
2023/09/23 02:00:39;;;;;;;8.70;6.22;;;;;;;;;;5027217;28;20445;-58
2023/09/23 02:03:04;;;;;;;8.10;5.53;;;;;;;;;;5026825;28;20921;-58
2023/09/23 02:05:30;;;;;;;9.07;6.00;;;;;;;;;;5028972;28;20401;-58
2023/09/23 02:07:55;;;;;;;6.70;5.40;;;;;;;;;;5028172;28;20488;-58
2023/09/23 02:10:22;;;;;;;7.70;6.30;;;;;;;;;;5026635;28;20440;-57
2023/09/23 02:12:47;;;;;;;7.32;5.93;;;;;;;;;;5025693;28;20993;-58
2023/09/23 02:15:15;;;;;;;8.20;6.83;;;;;;;;;;5019737;28;20734;-57
2023/09/23 02:17:42;;;;;;;9.05;7.57;;;;;;;;;;5019407;28;20401;-58
2023/09/23 02:20:11;;;;;;;8.63;6.85;;;;;;;;;;5022250;28;20403;-58
2023/09/23 02:22:37;;;;;;;8.52;6.53;;;;;;;;;;5030004;28;20416;-58
2023/09/23 02:25:07;;;;;;;9.90;7.23;;;;;;;;;;5026010;28;20410;-57
2023/09/23 02:27:32;;;;;;;10.48;8.00;;;;;;;;;;5026512;28;20430;-58
2023/09/23 02:29:58;;;;;;;9.63;7.73;;;;;;;;;;5028641;28;20528;-58
2023/09/23 02:32:23;;;;;;;9.23;7.77;;;;;;;;;;5032610;28;20441;-58
2023/09/23 02:34:48;;;;;;;10.63;8.40;;;;;;;;;;5025087;28;20410;-58
2023/09/23 02:37:14;;;;;;;12.13;9.25;;;;;;;;;;5020095;28;20921;-58
2023/09/23 02:39:40;;;;;;;10.30;8.77;;;;;;;;;;5021174;28;20483;-58
2023/09/23 02:42:06;;;;;;;11.82;9.43;;;;;;;;;;5019610;28;20791;-58
2023/09/23 02:44:31;;;;;;;10.85;9.75;;;;;;;;;;5027417;28;20485;-58
2023/09/23 02:46:57;;;;;;;13.00;10.53;;;;;;;;;;5029255;28;20465;-58
2023/09/23 02:49:22;;;;;;;12.03;9.93;;;;;;;;;;5024469;28;20399;-58
2023/09/23 02:51:48;;;;;;;11.37;9.60;;;;;;;;;;5027110;28;20776;-58
2023/09/23 02:54:15;;;;;;;12.20;10.73;;;;;;;;;;5026984;28;20403;-58
2023/09/23 02:56:41;;;;;;;13.13;11.48;;;;;;;;;;5028957;28;20421;-58
2023/09/23 02:59:13;;;;;;;14.10;11.80;;;;;;;;;;5018492;28;20389;-58
2023/09/23 03:01:39;;;;;;;16.10;12.32;;;;;;;;;;5017689;28;20414;-58
2023/09/23 03:04:16;;;;;;;15.75;12.68;;;;;;;;;;5021288;28;20642;-58
2023/09/23 03:06:43;;;;;;;15.00;12.93;;;;;;;;;;5025382;28;20493;-58
2023/09/23 03:09:10;;;;;;;14.60;13.10;;;;;;;;;;5025282;28;20437;-57
2023/09/23 03:11:42;;;;;;;14.63;12.70;;;;;;;;;;5028039;28;20414;-58
2023/09/23 03:14:12;;;;;;;16.00;14.00;;;;;;;;;;5030154;28;21037;-57
2023/09/23 03:16:44;;;;;;;16.67;13.23;;;;;;;;;;5025174;28;20537;-58
2023/09/23 03:19:10;;;;;;;16.55;13.52;;;;;;;;;;5025617;28;20399;-57
2023/09/23 03:21:42;;;;;;;16.58;14.30;;;;;;;;;;5022579;28;20395;-57
2023/09/23 03:24:08;;;;;;;15.60;13.80;;;;;;;;;;5024033;28;21016;-58
2023/09/23 03:26:33;;;;;;;16.15;13.88;;;;;;;;;;5018180;28;20761;-57
2023/09/23 03:28:58;;;;;;;15.57;13.73;;;;;;;;;;5024836;28;20769;-58
2023/09/23 03:31:24;;;;;;;16.17;14.03;;;;;;;;;;5027237;28;20409;-57
2023/09/23 03:33:49;;;;;;;14.87;13.13;;;;;;;;;;5025200;28;20500;-58
2023/09/23 03:36:15;;;;;;;16.67;14.57;;;;;;;;;;5024351;28;20415;-58
2023/09/23 03:38:42;;;;;;;15.90;14.20;;;;;;;;;;5027234;28;20414;-58
2023/09/23 03:41:07;;;;;;;15.60;13.80;;;;;;;;;;5025848;28;21081;-57
2023/09/23 03:43:33;;;;;;;16.70;13.87;;;;;;;;;;5021136;28;20528;-58
2023/09/23 03:45:58;;;;;;;21.47;15.00;;;;;;;;;;5019127;28;20423;-58
2023/09/23 03:48:23;;;;;;;14.90;13.30;;;;;;;;;;5017628;28;20929;-58
2023/09/23 03:50:50;;;;;;;16.63;13.23;;;;;;;;;;5020058;28;20818;-57
2023/09/23 03:53:16;;;;;;;15.55;13.00;;;;;;;;;;5024759;28;20732;-58
2023/09/23 03:55:42;;;;;;;14.85;13.25;;;;;;;;;;5029479;28;20904;-58
2023/09/23 03:58:07;;;;;;;15.50;12.93;;;;;;;;;;5025355;28;20509;-58
2023/09/23 04:00:34;;;;;;;15.10;12.27;;;;;;;;;;5025784;28;20553;-57
2023/09/23 04:02:59;;;;;;;13.65;12.20;;;;;;;;;;5026655;28;20534;-58
2023/09/23 04:05:25;;;;;;;16.47;12.47;;;;;;;;;;5023320;28;20429;-58
2023/09/23 04:07:51;;;;;;;14.48;12.73;;;;;;;;;;5017552;28;20413;-58
2023/09/23 04:10:19;;;;;;;15.00;11.97;;;;;;;;;;5018448;28;20406;-58
2023/09/23 04:12:45;;;;;;;15.68;12.88;;;;;;;;;;5023810;28;20392;-57
2023/09/23 04:15:11;;;;;;;15.97;12.10;;;;;;;;;;5024968;28;20424;-58
2023/09/23 04:17:37;;;;;;;14.77;12.77;;;;;;;;;;5026156;28;20401;-57
2023/09/23 04:20:07;;;;;;;15.70;12.55;;;;;;;;;;5025193;28;20437;-58
2023/09/23 04:22:32;;;;;;;14.57;12.30;;;;;;;;;;5024257;28;20405;-57
2023/09/23 04:24:58;;;;;;;14.37;11.07;;;;;;;;;;5024530;28;20423;-58
2023/09/23 04:27:25;;;;;;;15.60;13.40;;;;;;;;;;5025586;28;20391;-58
2023/09/23 04:29:54;;;;;;;14.98;11.52;;;;;;;;;;5024362;28;20407;-57
2023/09/23 04:32:20;;;;;;;14.57;12.65;;;;;;;;;;5015611;28;20409;-58
2023/09/23 04:34:45;;;;;;;14.13;11.15;;;;;;;;;;5016366;28;20438;-57
2023/09/23 04:37:12;;;;;;;16.70;12.43;;;;;;;;;;5025624;28;21010;-58
2023/09/23 04:39:37;;;;;;;15.18;12.10;;;;;;;;;;5024242;28;20406;-58
2023/09/23 04:42:04;;;;;;;14.50;12.07;;;;;;;;;;5023510;28;20403;-58
2023/09/23 04:44:30;;;;;;;15.02;11.95;;;;;;;;;;5025704;28;20415;-58
2023/09/23 04:46:56;;;;;;;15.30;11.83;;;;;;;;;;5030809;28;20392;-58
2023/09/23 04:49:21;;;;;;;15.03;12.27;;;;;;;;;;5024338;28;20936;-58
2023/09/23 04:51:46;;;;;;;16.60;12.43;;;;;;;;;;5022944;28;20431;-57
2023/09/23 04:54:12;;;;;;;17.07;12.67;;;;;;;;;;5016290;28;20405;-58
2023/09/23 04:56:41;;;;;;;16.93;12.73;;;;;;;;;;5016856;28;20406;-58
2023/09/23 04:59:06;;;;;;;16.98;12.93;;;;;;;;;;5021497;28;20964;-58
2023/09/23 05:01:31;;;;;;;15.73;11.77;;;;;;;;;;5025587;28;20405;-57
2023/09/23 05:03:59;;;;;;;17.20;12.80;;;;;;;;;;5024523;28;20545;-58
2023/09/23 05:06:24;;;;;;;18.48;13.02;;;;;;;;;;5023985;28;20406;-57
2023/09/23 05:08:50;;;;;;;15.57;12.40;;;;;;;;;;5026072;28;20403;-57
2023/09/23 05:11:16;;;;;;;18.00;13.73;;;;;;;;;;5025082;28;20413;-57
2023/09/23 05:13:42;;;;;;;16.95;12.82;;;;;;;;;;5021725;28;20412;-58
2023/09/23 05:16:07;;;;;;;17.20;12.80;;;;;;;;;;5016450;28;20407;-57
2023/09/23 05:18:32;;;;;;;19.33;13.10;;;;;;;;;;5018307;28;21203;-58
2023/09/23 05:20:57;;;;;;;17.77;13.27;;;;;;;;;;5021323;28;20827;-58
2023/09/23 05:23:23;;;;;;;14.20;12.03;;;;;;;;;;5026813;28;20886;-57
2023/09/23 05:25:49;;;;;;;16.70;12.30;;;;;;;;;;5030636;28;20409;-58
2023/09/23 05:28:14;;;;;;;17.33;12.82;;;;;;;;;;5028379;28;20449;-57
2023/09/23 05:30:39;;;;;;;18.00;12.67;;;;;;;;;;5027831;28;21173;-57
2023/09/23 05:33:05;;;;;;;18.00;12.40;;;;;;;;;;5028707;28;20430;-57
2023/09/23 05:35:30;;;;;;;16.73;12.48;;;;;;;;;;5043122;28;20436;-57
2023/09/23 05:37:55;;;;;;;16.13;12.20;;;;;;;;;;5049827;28;20409;-57
2023/09/23 05:42:47;;;;;;;14.05;11.60;;;;;;;;;;5047413;28;20416;-58
2023/09/23 05:45:13;;;;;;;14.00;11.50;;;;;;;;;;5048856;28;20906;-58
2023/09/23 05:47:40;;;;;;;13.23;10.63;;;;;;;;;;5049989;28;20426;-59
2023/09/23 05:50:06;;;;;;;14.73;11.52;;;;;;;;;;5046808;28;20405;-59
2023/09/23 05:52:31;;;;;;;13.55;10.18;;;;;;;;;;5049040;28;21579;-58
2023/09/23 05:54:57;;;;;;;14.03;10.37;;;;;;;;;;5049533;28;20405;-58
2023/09/23 05:57:23;;;;;;;12.63;9.50;;;;;;;;;;5047722;28;20425;-58
2023/09/23 05:59:48;;;;;;;13.87;10.53;;;;;;;;;;5047553;28;20967;-59
2023/09/23 06:02:13;;;;;;;13.93;10.33;;;;;;;;;;5049179;28;20433;-58
2023/09/23 06:04:38;;;;;;;13.73;10.20;;;;;;;;;;5048621;28;20413;-58
2023/09/23 06:07:04;;;;;;;12.30;9.27;;;;;;;;;;5046542;28;20421;-58
2023/09/23 06:09:30;;;;;;;12.23;9.55;;;;;;;;;;5049356;28;20473;-58
2023/09/23 06:11:55;;;;;;;12.50;9.20;;;;;;;;;;5048646;28;20397;-58
2023/09/23 06:14:20;;;;;;;11.67;9.43;;;;;;;;;;5048010;28;20390;-58
2023/09/23 06:16:47;;;;;;;13.60;9.93;;;;;;;;;;5048228;28;20406;-58
2023/09/23 06:19:12;;;;;;;11.55;8.80;;;;;;;;;;5047842;28;20417;-58
2023/09/23 06:21:38;;;;;;;13.13;8.80;;;;;;;;;;5048696;28;20428;-58
2023/09/23 06:24:03;;;;;;;11.53;8.27;;;;;;;;;;5046583;28;20414;-58
2023/09/23 06:26:28;;;;;;;11.30;8.40;;;;;;;;;;5050985;28;20389;-58
2023/09/23 06:28:53;;;;;;;10.77;8.20;;;;;;;;;;5050125;28;20397;-58
2023/09/23 06:31:19;;;;;;;11.55;7.50;;;;;;;;;;5048247;28;20412;-58
2023/09/23 06:33:44;;;;;;;10.83;7.73;;;;;;;;;;5046578;28;20889;-58
2023/09/23 06:36:09;;;;;;;10.47;7.50;;;;;;;;;;5047851;28;20397;-58
2023/09/23 06:38:34;;;;;;;12.00;8.43;;;;;;;;;;5048837;28;20756;-58
2023/09/23 06:41:00;;;;;;;11.80;7.87;;;;;;;;;;5045662;28;20401;-58
2023/09/23 06:43:25;;;;;;;11.80;7.87;;;;;;;;;;5048341;28;20481;-58
2023/09/23 06:45:52;;;;;;;10.67;8.00;;;;;;;;;;5048701;28;20406;-58
2023/09/23 06:48:17;;;;;;;10.27;7.68;;;;;;;;;;5046562;28;20759;-58
2023/09/23 06:50:43;;;;;;;12.20;7.63;;;;;;;;;;5047895;28;20393;-58
2023/09/23 06:53:08;;;;;;;12.13;8.17;;;;;;;;;;5048368;28;20397;-58
2023/09/23 06:55:33;;;;;;;10.50;7.25;;;;;;;;;;5047788;28;20819;-57
2023/09/23 06:57:59;;;;;;;11.97;7.53;;;;;;;;;;5047152;28;20413;-58
2023/09/23 07:00:24;;;;;;;12.13;7.83;;;;;;;;;;5047469;28;20413;-58
2023/09/23 07:02:49;;;;;;;10.70;7.67;;;;;;;;;;5048893;28;20807;-58
2023/09/23 07:05:15;;;;;;;11.77;7.73;;;;;;;;;;5045740;28;20490;-58
2023/09/23 07:07:40;;;;;;;12.00;7.60;;;;;;;;;;5046988;28;20405;-58
2023/09/23 07:10:06;;;;;;;11.27;7.10;;;;;;;;;;5047846;28;20402;-58
2023/09/23 07:12:31;;;;;;;10.73;7.30;;;;;;;;;;5047188;28;20799;-58
2023/09/23 07:14:57;;;;;;;10.23;6.63;;;;;;;;;;5046057;28;20445;-58
2023/09/23 07:17:22;;;;;;;9.90;6.87;;;;;;;;;;5047593;28;20868;-58
2023/09/23 07:19:48;;;;;;;12.23;7.33;;;;;;;;;;5038804;28;20401;-58
2023/09/23 07:22:13;;;;;;;14.30;7.80;;;;;;;;;;5042101;28;20495;-58
2023/09/23 07:24:38;;;;;;;12.88;7.53;;;;;;;;;;5048105;28;20599;-58
2023/09/23 07:27:03;;;;;;;11.20;7.17;;;;;;;;;;5047943;28;20429;-58
2023/09/23 07:29:30;;;;;;;10.83;7.37;;;;;;;;;;5045863;28;20917;-57
2023/09/23 07:31:56;;;;;;;13.40;8.30;;;;;;;;;;5047879;28;20417;-58
2023/09/23 07:34:21;;;;;;;10.00;7.93;;;;;;;;;;5047579;28;20418;-58
2023/09/23 07:36:46;;;;;;;10.37;6.83;;;;;;;;;;5045709;28;20402;-58
2023/09/23 07:39:12;;;;;;;9.57;7.00;;;;;;;;;;5045885;28;20860;-58
2023/09/23 07:41:38;;;;;;;10.48;6.90;;;;;;;;;;5047698;28;20488;-57
2023/09/23 07:44:03;;;;;;;11.37;6.67;;;;;;;;;;5046749;28;20443;-58
2023/09/23 07:46:28;;;;;;;10.83;7.20;;;;;;;;;;5045495;28;20896;-58
2023/09/23 07:48:54;;;;;;;10.80;6.70;;;;;;;;;;5046830;28;20551;-58
2023/09/23 07:51:19;;;;;;;12.43;6.87;;;;;;;;;;5046591;28;20410;-57
2023/09/23 07:53:44;;;;;;;9.00;6.17;;;;;;;;;;5045683;28;20474;-58
2023/09/23 07:56:09;;;;;;;10.37;6.27;;;;;;;;;;5046167;28;20729;-57
2023/09/23 07:58:35;;;;;;;7.77;5.57;;;;;;;;;;5046953;28;20424;-58
2023/09/23 08:01:00;;;;;;;9.03;5.57;;;;;;;;;;5046793;28;20406;-57
2023/09/23 08:03:26;;;;;;;8.00;5.47;;;;;;;;;;5045491;28;20397;-57
2023/09/23 08:05:52;;;;;;;9.18;5.32;;;;;;;;;;5046593;28;20506;-58
2023/09/23 08:08:17;;;;;;;8.52;5.53;;;;;;;;;;5046760;28;20400;-58
2023/09/23 08:10:43;;;;;;;10.83;5.30;;;;;;;;;;5046289;28;20413;-58
2023/09/23 08:13:08;;;;;;;9.33;5.00;;;;;;;;;;5050362;28;20400;-58
2023/09/23 08:15:33;;;;;;;9.23;4.70;;;;;;;;;;5049730;28;20828;-58
2023/09/23 08:17:58;;;;;;;8.90;4.87;;;;;;;;;;5049403;28;20402;-59
2023/09/23 08:20:25;;;;;;;6.87;4.33;;;;;;;;;;5049363;28;20393;-59
2023/09/23 08:22:51;;;;;;;7.45;4.13;;;;;;;;;;5050017;28;20403;-59
2023/09/23 08:25:17;;;;;;;8.90;4.50;;;;;;;;;;5048773;28;20413;-58
2023/09/23 08:27:43;;;;;;;7.82;4.32;;;;;;;;;;5050083;28;20919;-59
2023/09/23 08:30:10;;;;;;;6.57;3.90;;;;;;;;;;5049613;28;20409;-59
2023/09/23 08:32:35;;;;;;;7.57;4.13;;;;;;;;;;5049346;28;20480;-59
2023/09/23 08:35:00;;;;;;;8.35;3.88;;;;;;;;;;5049727;28;20489;-58
2023/09/23 08:37:25;;;;;;;7.93;3.83;;;;;;;;;;5049193;28;20784;-59
2023/09/23 08:39:51;;;;;;;9.07;3.50;;;;;;;;;;5049465;28;20926;-59
2023/09/23 08:42:17;;;;;;;8.07;3.50;;;;;;;;;;5048764;28;20997;-59
2023/09/23 08:44:43;;;;;;;7.40;3.58;;;;;;;;;;5048751;28;20836;-59
2023/09/23 08:47:08;;;;;;;7.70;3.50;;;;;;;;;;5047988;28;20397;-59
2023/09/23 08:49:33;;;;;;;8.70;3.37;;;;;;;;;;5049445;28;20447;-58
2023/09/23 08:51:58;;;;;;;6.73;3.33;;;;;;;;;;5047957;28;20397;-58
2023/09/23 08:54:31;;;;;;;9.43;3.70;;;;;;;;;;5047649;28;20385;-58
2023/09/23 08:56:56;;;;;;;6.63;3.05;;;;;;;;;;5053947;28;20397;-58
2023/09/23 08:59:21;;;;;;;7.75;3.30;;;;;;;;;;5053247;28;20450;-58
2023/09/23 09:01:47;;;;;;;8.60;3.47;;;;;;;;;;5053542;28;20465;-58
2023/09/23 09:04:14;;;;;;;6.10;3.50;;;;;;;;;;5053177;28;20404;-58
2023/09/23 09:06:45;;;;;;;8.70;4.47;;;;;;;;;;5053471;28;20405;-58
2023/09/23 09:09:11;;;;;;;6.50;3.42;;;;;;;;;;5052673;28;20393;-58
2023/09/23 09:11:36;;;;;;;6.57;3.15;;;;;;;;;;5053740;28;20400;-58
2023/09/23 09:14:02;;;;;;;6.90;3.10;;;;;;;;;;5052667;28;20446;-59
2023/09/23 09:16:27;;;;;;;6.27;3.00;;;;;;;;;;5053749;28;20392;-58
2023/09/23 09:18:53;;;;;;;7.80;3.00;;;;;;;;;;5053724;28;20970;-58
2023/09/23 09:21:19;;;;;;;6.20;2.90;;;;;;;;;;5052364;28;20398;-58
2023/09/23 09:23:44;;;;;;;7.40;3.05;;;;;;;;;;5051945;28;20984;-58
2023/09/23 09:26:09;;;;;;;6.10;2.80;;;;;;;;;;5053075;28;20424;-58
2023/09/23 09:28:35;;;;;;;8.27;3.03;;;;;;;;;;5052997;28;20480;-58
2023/09/23 09:31:00;;;;;;;5.83;2.80;;;;;;;;;;5051022;28;20447;-59
2023/09/23 09:33:26;;;;;;;6.00;3.07;;;;;;;;;;5049478;28;20393;-59
2023/09/23 09:35:54;;;;;;;7.28;2.90;;;;;;;;;;5047002;28;20412;-58
2023/09/23 09:38:19;;;;;;;6.40;2.90;;;;;;;;;;5048266;28;20409;-58
2023/09/23 09:40:45;;;;;;;8.33;3.80;;;;;;;;;;5048885;28;20432;-58
2023/09/23 09:43:10;;;;;;;8.98;3.80;;;;;;;;;;5046524;28;20413;-58
2023/09/23 09:45:42;;;;;;;10.43;4.10;;;;;;;;;;5049142;28;20406;-58
2023/09/23 09:48:08;;;;;;;9.75;4.95;;;;;;;;;;5050344;28;20944;-59
2023/09/23 09:50:34;;;;;;;7.70;3.57;;;;;;;;;;5053134;28;20481;-59
2023/09/23 09:52:59;;;;;;;9.03;3.50;;;;;;;;;;5052007;28;20401;-59
2023/09/23 09:55:25;;;;;;;6.70;2.90;;;;;;;;;;5051947;28;20397;-59
2023/09/23 09:57:52;;;;;;;10.67;3.80;;;;;;;;;;5052199;28;20405;-59
2023/09/23 10:00:28;;;;;;;7.38;3.40;;;;;;;;;;5052304;28;20464;-59
2023/09/23 10:03:01;;;;;;;7.20;3.13;;;;;;;;;;5052444;28;20492;-59
2023/09/23 10:05:33;;;;;;;7.40;3.30;;;;;;;;;;5050892;28;20402;-59
2023/09/23 10:07:59;;;;;;;7.87;3.10;;;;;;;;;;5052633;28;20880;-59
2023/09/23 10:10:31;;;;;;;7.95;3.20;;;;;;;;;;5051256;28;20420;-59
2023/09/23 10:12:59;;;;;;;6.68;3.00;;;;;;;;;;5052508;28;20401;-59
2023/09/23 10:15:26;;;;;;;7.88;3.00;;;;;;;;;;5051748;28;20401;-58
2023/09/23 10:17:53;;;;;;;7.28;3.05;;;;;;;;;;5050518;28;20756;-59
2023/09/23 10:20:20;;;;;;;7.15;3.10;;;;;;;;;;5050862;28;20398;-58
2023/09/23 10:22:53;;;;;;;6.82;3.10;;;;;;;;;;5051649;28;20835;-58
2023/09/23 10:25:18;;;;;;;8.27;3.30;;;;;;;;;;5051052;28;20418;-59
2023/09/23 10:27:54;;;;;;;7.93;3.27;;;;;;;;;;5051148;28;20410;-58
2023/09/23 10:30:26;;;;;;;8.32;3.30;;;;;;;;;;5050341;28;20404;-59
2023/09/23 10:32:51;;;;;;;6.78;3.33;;;;;;;;;;5051678;28;20482;-58
2023/09/23 10:35:21;;;;;;;8.45;3.10;;;;;;;;;;5051288;28;20519;-59
2023/09/23 10:37:47;;;;;;;7.47;2.90;;;;;;;;;;5051935;28;20463;-58
2023/09/23 10:40:12;;;;;;;7.70;3.00;;;;;;;;;;5051051;28;20406;-58
2023/09/23 10:42:38;;;;;;;7.13;2.80;;;;;;;;;;5051986;28;20493;-58
2023/09/23 10:45:04;;;;;;;8.85;3.33;;;;;;;;;;5051053;28;20405;-59
2023/09/23 10:47:29;;;;;;;8.17;4.27;;;;;;;;;;5051336;28;20481;-58
2023/09/23 10:49:54;;;;;;;11.63;6.72;;;;;;;;;;5051685;28;20400;-59
2023/09/23 10:52:20;;;;;;;8.63;3.30;;;;;;;;;;5051200;28;20413;-59
2023/09/23 10:54:47;;;;;;;9.17;3.03;;;;;;;;;;5051175;28;20469;-58
2023/09/23 10:57:12;;;;;;;6.95;3.25;;;;;;;;;;5051066;28;20393;-59
2023/09/23 10:59:38;;;;;;;8.50;2.90;;;;;;;;;;5050784;28;20394;-58
2023/09/23 11:02:05;;;;;;;6.50;2.90;;;;;;;;;;5051251;28;20405;-58
2023/09/23 11:04:30;;;;;;;7.93;3.00;;;;;;;;;;5051151;28;20899;-58
2023/09/23 11:06:56;;;;;;;6.73;2.70;;;;;;;;;;5050607;28;20397;-59
2023/09/23 11:09:22;;;;;;;8.30;2.70;;;;;;;;;;5050949;28;20718;-58
2023/09/23 11:11:47;;;;;;;7.13;2.67;;;;;;;;;;5051040;28;20393;-59
2023/09/23 11:14:13;;;;;;;7.83;3.00;;;;;;;;;;5049873;28;20414;-59
2023/09/23 11:16:41;;;;;;;8.10;2.70;;;;;;;;;;5051285;28;20404;-59
2023/09/23 11:19:07;;;;;;;6.50;2.30;;;;;;;;;;5049642;28;20404;-58
2023/09/23 11:21:40;;;;;;;8.10;2.70;;;;;;;;;;5050949;28;20386;-59
2023/09/23 11:24:07;;;;;;;8.27;2.30;;;;;;;;;;5050522;28;20911;-60
2023/09/23 11:26:32;;;;;;;6.75;2.42;;;;;;;;;;5050767;28;20414;-59
2023/09/23 11:28:57;;;;;;;6.63;2.50;;;;;;;;;;5050565;28;20421;-59
2023/09/23 11:31:24;;;;;;;5.63;2.50;;;;;;;;;;5050760;28;20823;-59
2023/09/23 11:33:49;;;;;;;7.10;2.30;;;;;;;;;;5050911;28;20888;-58
2023/09/23 11:36:14;;;;;;;6.27;2.60;;;;;;;;;;5046036;28;20409;-59
2023/09/23 11:38:39;;;;;;;7.93;2.77;;;;;;;;;;5048654;28;20397;-58
2023/09/23 11:41:05;;;;;;;8.50;2.90;;;;;;;;;;5046325;28;20416;-59
2023/09/23 11:43:30;;;;;;;11.47;5.37;;;;;;;;;;5045892;28;20874;-58
2023/09/23 11:45:56;;;;;;;10.75;6.72;;;;;;;;;;5046136;28;20459;-58
2023/09/23 11:48:21;;;;;;;8.93;4.57;;;;;;;;;;5046718;28;20385;-59
2023/09/23 11:50:46;;;;;;;7.37;3.40;;;;;;;;;;5045020;28;20812;-59
2023/09/23 11:53:13;;;;;;;7.07;2.90;;;;;;;;;;5047539;28;20409;-59
2023/09/23 11:55:38;;;;;;;4.82;2.08;;;;;;;;;;5047388;28;20401;-59
2023/09/23 11:58:04;;;;;;;5.68;2.00;;;;;;;;;;5045031;28;20917;-60
2023/09/23 12:00:29;;;;;;;4.97;2.10;;;;;;;;;;5046763;28;20409;-59
2023/09/23 12:02:54;;;;;;;6.83;2.30;;;;;;;;;;5046591;28;21228;-59
2023/09/23 12:05:20;;;;;;;6.03;1.83;;;;;;;;;;5046437;28;20520;-59
2023/09/23 12:07:47;;;;;;;5.30;2.07;;;;;;;;;;5045076;28;21369;-59
2023/09/23 12:10:13;;;;;;;5.43;2.00;;;;;;;;;;5046392;28;20548;-59
2023/09/23 12:12:39;;;;;;;6.32;2.15;;;;;;;;;;5047477;28;20429;-59
2023/09/23 12:15:05;;;;;;;4.73;2.23;;;;;;;;;;5044265;28;20495;-60
2023/09/23 12:17:31;;;;;;;6.70;2.42;;;;;;;;;;5047044;28;20425;-59
2023/09/23 12:19:56;;;;;;;5.43;2.13;;;;;;;;;;5047138;28;20515;-59
2023/09/23 12:22:21;;;;;;;6.00;2.57;;;;;;;;;;5044715;28;20395;-59
2023/09/23 12:24:46;;;;;;;6.13;2.43;;;;;;;;;;5045576;28;20409;-59
2023/09/23 12:27:12;;;;;;;6.07;2.40;;;;;;;;;;5046620;28;20406;-59
2023/09/23 12:29:37;;;;;;;6.27;2.43;;;;;;;;;;5046379;28;20401;-59
2023/09/23 12:32:03;;;;;;;5.05;2.10;;;;;;;;;;5046990;28;20410;-59
2023/09/23 12:34:28;;;;;;;7.23;2.50;;;;;;;;;;5050225;28;20404;-59
2023/09/23 12:36:53;;;;;;;5.80;2.30;;;;;;;;;;5044765;28;20409;-59
2023/09/23 12:39:21;;;;;;;6.03;2.23;;;;;;;;;;5046619;28;20437;-59
2023/09/23 12:41:47;;;;;;;6.47;2.30;;;;;;;;;;5046883;28;20397;-59
2023/09/23 12:44:12;;;;;;;6.73;2.27;;;;;;;;;;5043924;28;20436;-59
2023/09/23 12:46:37;;;;;;;4.40;1.70;;;;;;;;;;5046367;28;20614;-59
2023/09/23 12:49:03;;;;;;;5.80;2.10;;;;;;;;;;5046463;28;20409;-59
2023/09/23 12:51:28;;;;;;;6.95;1.80;;;;;;;;;;5048833;28;20481;-59
2023/09/23 12:53:54;;;;;;;4.22;1.42;;;;;;;;;;5047915;28;20476;-58
2023/09/23 12:56:21;;;;;;;4.75;1.40;;;;;;;;;;5045538;28;20875;-58
2023/09/23 12:58:46;;;;;;;3.72;1.30;;;;;;;;;;5045281;28;20409;-58
2023/09/23 13:01:12;;;;;;;3.03;1.10;;;;;;;;;;5046143;28;20421;-58
2023/09/23 13:03:37;;;;;;;3.53;1.10;;;;;;;;;;5046310;28;20424;-58
2023/09/23 13:06:03;;;;;;;4.33;1.20;;;;;;;;;;5044284;28;20419;-58
2023/09/23 13:08:28;;;;;;;5.30;1.47;;;;;;;;;;5046182;28;20404;-58
2023/09/23 13:10:53;;;;;;;3.37;1.00;;;;;;;;;;5046706;28;21135;-58
2023/09/23 13:13:19;;;;;;;4.53;1.23;;;;;;;;;;5043718;28;20404;-58
2023/09/23 13:15:44;;;;;;;5.27;1.37;;;;;;;;;;5046180;28;20467;-58
2023/09/23 13:18:09;;;;;;;4.40;1.30;;;;;;;;;;5046105;28;20500;-58
2023/09/23 13:20:35;;;;;;;4.00;1.20;;;;;;;;;;5044532;28;20389;-58
2023/09/23 13:23:00;;;;;;;5.27;1.30;;;;;;;;;;5045307;28;20892;-58
2023/09/23 13:25:25;;;;;;;3.73;1.20;;;;;;;;;;5045825;28;20425;-58
2023/09/23 13:27:51;;;;;;;4.13;1.20;;;;;;;;;;5045988;28;20404;-58
2023/09/23 13:30:18;;;;;;;4.88;1.50;;;;;;;;;;5043493;28;20974;-58
2023/09/23 13:32:43;;;;;;;4.50;1.52;;;;;;;;;;5032088;28;20532;-58
2023/09/23 13:35:09;;;;;;;4.33;1.33;;;;;;;;;;5024643;28;20405;-58
2023/09/23 13:37:35;;;;;;;4.82;1.40;;;;;;;;;;5023324;28;20401;-58
2023/09/23 13:40:01;;;;;;;4.88;1.40;;;;;;;;;;5022967;28;20405;-60
2023/09/23 13:42:26;;;;;;;4.38;1.30;;;;;;;;;;5030029;28;20753;-58
2023/09/23 13:44:51;;;;;;;4.30;1.00;;;;;;;;;;5033440;28;20407;-58
2023/09/23 13:47:17;;;;;;;4.37;1.00;;;;;;;;;;5034025;28;20514;-58
2023/09/23 13:49:42;;;;;;;3.60;1.10;;;;;;;;;;5032107;28;20430;-58
2023/09/23 13:52:08;;;;;;;3.20;0.80;;;;;;;;;;5031800;28;20407;-58
2023/09/23 13:54:33;;;;;;;3.30;1.00;;;;;;;;;;5034911;28;20885;-58
2023/09/23 13:56:58;;;;;;;2.07;0.80;;;;;;;;;;5024490;28;20444;-58
2023/09/23 13:59:23;;;;;;;3.73;0.80;;;;;;;;;;5023883;28;20399;-58
2023/09/23 14:01:49;;;;;;;3.50;0.80;;;;;;;;;;5027920;28;20536;-58
2023/09/23 14:04:14;;;;;;;3.40;0.60;;;;;;;;;;5031021;28;20464;-58
2023/09/23 14:06:39;;;;;;;2.57;0.70;;;;;;;;;;5031308;28;20432;-58
2023/09/23 14:09:05;;;;;;;2.17;0.70;;;;;;;;;;5031409;28;20890;-58
2023/09/23 14:11:30;;;;;;;3.47;0.77;;;;;;;;;;5031927;28;20401;-58
2023/09/23 14:13:57;;;;;;;2.77;0.80;;;;;;;;;;5032508;28;20409;-58
2023/09/23 14:16:22;;;;;;;2.00;0.70;;;;;;;;;;5030394;28;20399;-58
2023/09/23 14:18:47;;;;;;;3.53;0.83;;;;;;;;;;5027797;28;20491;-58
2023/09/23 14:21:13;;;;;;;2.73;0.83;;;;;;;;;;5022204;28;20418;-58
2023/09/23 14:23:38;;;;;;;2.83;0.90;;;;;;;;;;5023524;28;20443;-58
2023/09/23 14:26:03;;;;;;;2.70;1.00;;;;;;;;;;5028141;28;20407;-58
2023/09/23 14:28:29;;;;;;;3.97;1.13;;;;;;;;;;5032271;28;20410;-58
2023/09/23 14:30:54;;;;;;;3.43;0.90;;;;;;;;;;5030542;28;20487;-58